Time;durP1;ratioP1;P1;durP2;ratioP2;P2;SDS_P1;SDS_P2;PMS_P1;PMS_P2;Temp;Humidity;BMP_temperature;BMP_pressure;BME280_temperature;BME280_humidity;BME280_pressure;Samples;Min_cycle;Max_cycle;Signal;HPM_P1;HPM_P2
2023/06/02 00:01:20;;;;;;;10.15;3.08;;;11.40;99.90;;;;;;5093877;28;20044;-62
2023/06/02 00:03:47;;;;;;;7.32;2.45;;;11.40;99.90;;;;;;5093823;28;20440;-63
2023/06/02 00:06:14;;;;;;;10.68;2.38;;;11.50;99.90;;;;;;5092399;28;20059;-64
2023/06/02 00:08:41;;;;;;;6.78;2.70;;;11.40;99.90;;;;;;5093461;28;20368;-61
2023/06/02 00:11:09;;;;;;;14.48;3.00;;;11.30;99.90;;;;;;5092859;28;20265;-63
2023/06/02 00:13:35;;;;;;;7.28;2.60;;;11.30;99.90;;;;;;5093688;28;20305;-64
2023/06/02 00:16:03;;;;;;;8.93;2.83;;;11.30;99.90;;;;;;5093677;28;20040;-62
2023/06/02 00:18:33;;;;;;;7.53;3.08;;;11.30;99.90;;;;;;5093278;28;20117;-65
2023/06/02 00:21:01;;;;;;;7.90;2.30;;;11.30;99.90;;;;;;5093233;28;20055;-64
2023/06/02 00:23:29;;;;;;;7.70;2.38;;;11.30;99.90;;;;;;5093496;28;20529;-62
2023/06/02 00:25:58;;;;;;;8.82;2.75;;;11.30;99.90;;;;;;5093391;28;20044;-64
2023/06/02 00:28:25;;;;;;;10.80;2.92;;;11.20;99.90;;;;;;5093501;28;20048;-63
2023/06/02 00:30:51;;;;;;;12.23;2.63;;;11.30;99.90;;;;;;5093635;28;20059;-64
2023/06/02 00:33:18;;;;;;;9.10;2.58;;;11.30;99.90;;;;;;5093326;28;20044;-64
2023/06/02 00:35:45;;;;;;;11.70;2.88;;;11.30;99.90;;;;;;5092965;28;20055;-62
2023/06/02 00:38:12;;;;;;;10.32;2.72;;;11.30;99.90;;;;;;5092864;28;20044;-63
2023/06/02 00:40:39;;;;;;;10.30;2.67;;;11.30;99.90;;;;;;5093320;28;20044;-63
2023/06/02 00:43:05;;;;;;;13.23;2.60;;;11.20;99.90;;;;;;5093301;28;20048;-64
2023/06/02 00:45:32;;;;;;;10.63;2.90;;;11.30;99.90;;;;;;5092573;28;20401;-63
2023/06/02 00:48:01;;;;;;;8.82;2.85;;;11.30;99.90;;;;;;5093290;28;20044;-63
2023/06/02 00:50:27;;;;;;;9.57;2.40;;;11.30;99.90;;;;;;5092438;28;20059;-63
2023/06/02 00:52:55;;;;;;;9.95;2.60;;;11.20;99.90;;;;;;5093061;28;20055;-63
2023/06/02 00:55:21;;;;;;;9.82;3.05;;;11.20;99.90;;;;;;5092866;28;20047;-63
2023/06/02 00:57:51;;;;;;;11.68;2.80;;;11.20;99.90;;;;;;5093222;28;20081;-63
2023/06/02 01:00:19;;;;;;;7.72;2.47;;;11.20;99.90;;;;;;5092656;28;20044;-64
2023/06/02 01:02:45;;;;;;;9.57;2.90;;;11.20;99.90;;;;;;5093100;28;20476;-63
2023/06/02 01:05:14;;;;;;;11.38;3.00;;;11.10;99.90;;;;;;5092383;28;20483;-62
2023/06/02 01:07:46;;;;;;;11.43;2.95;;;11.20;99.90;;;;;;5092855;28;20059;-63
2023/06/02 01:10:15;;;;;;;10.80;2.55;;;11.20;99.90;;;;;;5091203;28;20484;-61
2023/06/02 01:12:43;;;;;;;10.25;2.70;;;11.20;99.90;;;;;;5092790;28;20368;-63
2023/06/02 01:15:10;;;;;;;6.95;2.30;;;11.30;99.90;;;;;;5092331;28;20062;-63
2023/06/02 01:17:37;;;;;;;15.80;2.80;;;11.20;99.90;;;;;;5092389;28;20346;-62
2023/06/02 01:20:10;;;;;;;13.60;3.03;;;11.20;99.90;;;;;;5091910;28;20044;-62
2023/06/02 01:22:49;;;;;;;7.25;2.35;;;11.20;99.90;;;;;;5092676;28;20048;-63
2023/06/02 01:25:17;;;;;;;9.05;2.30;;;11.20;99.90;;;;;;5092711;28;20048;-63
2023/06/02 01:27:44;;;;;;;7.68;2.72;;;11.10;99.90;;;;;;5092766;28;20051;-63
2023/06/02 01:30:11;;;;;;;9.95;2.92;;;11.10;99.90;;;;;;5091153;28;20070;-63
2023/06/02 01:32:45;;;;;;;7.63;2.90;;;11.10;99.90;;;;;;5092744;28;20117;-63
2023/06/02 01:35:13;;;;;;;10.98;2.83;;;11.00;99.90;;;;;;5092244;28;20456;-62
2023/06/02 01:37:46;;;;;;;9.65;2.72;;;11.00;99.90;;;;;;5092492;28;20044;-63
2023/06/02 01:40:15;;;;;;;8.73;2.88;;;11.00;99.90;;;;;;5092423;28;20058;-63
2023/06/02 01:42:42;;;;;;;7.72;2.38;;;11.00;99.90;;;;;;5092361;28;20075;-62
2023/06/02 01:45:10;;;;;;;10.98;2.70;;;11.00;99.90;;;;;;5091206;28;20062;-62
2023/06/02 01:47:36;;;;;;;9.45;2.22;;;11.10;99.90;;;;;;5092059;28;20475;-63
2023/06/02 01:50:03;;;;;;;11.95;2.53;;;11.10;99.90;;;;;;5091959;28;20361;-62
2023/06/02 01:52:29;;;;;;;9.02;2.50;;;11.10;99.90;;;;;;5091230;28;20139;-63
2023/06/02 01:54:55;;;;;;;12.15;2.20;;;11.00;99.90;;;;;;5091957;28;20036;-63
2023/06/02 01:57:22;;;;;;;6.15;2.38;;;11.00;99.90;;;;;;5092044;28;20044;-64
2023/06/02 01:59:48;;;;;;;9.18;2.30;;;11.00;99.90;;;;;;5092000;28;20141;-63
2023/06/02 02:02:14;;;;;;;14.10;2.75;;;11.00;99.90;;;;;;5091325;28;20109;-63
2023/06/02 02:04:41;;;;;;;7.60;1.98;;;11.10;99.90;;;;;;5091595;28;20113;-63
2023/06/02 02:07:08;;;;;;;12.05;2.70;;;11.00;99.90;;;;;;5092087;28;20052;-62
2023/06/02 02:09:35;;;;;;;7.38;2.20;;;11.00;99.90;;;;;;5091850;28;20062;-62
2023/06/02 02:12:01;;;;;;;10.57;2.47;;;11.00;99.90;;;;;;5092784;28;20471;-63
2023/06/02 02:14:28;;;;;;;10.55;2.38;;;11.00;99.90;;;;;;5092567;28;20052;-63
2023/06/02 02:16:54;;;;;;;8.50;2.35;;;11.00;99.90;;;;;;5092149;28;20048;-63
2023/06/02 02:19:23;;;;;;;9.38;2.22;;;11.00;99.90;;;;;;5091403;28;20051;-61
2023/06/02 02:21:49;;;;;;;10.73;2.45;;;11.00;99.90;;;;;;5091883;28;20048;-64
2023/06/02 02:24:16;;;;;;;11.13;2.70;;;11.00;99.90;;;;;;5091622;28;20078;-62
2023/06/02 02:26:43;;;;;;;12.40;2.53;;;11.00;99.90;;;;;;5091765;28;20040;-62
2023/06/02 02:29:10;;;;;;;13.15;2.60;;;11.00;99.90;;;;;;5091267;28;20055;-63
2023/06/02 02:31:36;;;;;;;8.50;2.60;;;11.00;99.90;;;;;;5090500;28;20044;-63
2023/06/02 02:34:02;;;;;;;6.85;2.20;;;10.90;99.90;;;;;;5091663;28;20040;-64
2023/06/02 02:36:28;;;;;;;10.00;2.85;;;10.90;99.90;;;;;;5091062;28;20419;-62
2023/06/02 02:38:55;;;;;;;11.38;2.67;;;11.00;99.90;;;;;;5091470;28;20494;-62
2023/06/02 02:41:21;;;;;;;10.80;2.42;;;11.00;99.90;;;;;;5091570;28;20442;-63
2023/06/02 02:43:48;;;;;;;9.52;2.10;;;11.00;99.90;;;;;;5091665;28;20048;-62
2023/06/02 02:46:14;;;;;;;9.25;2.55;;;11.00;99.90;;;;;;5091084;28;20056;-61
2023/06/02 02:48:40;;;;;;;8.70;2.08;;;11.00;99.90;;;;;;5091105;28;20048;-62
2023/06/02 02:51:06;;;;;;;10.85;2.85;;;11.00;99.90;;;;;;5091188;28;20051;-63
2023/06/02 02:53:33;;;;;;;11.90;2.45;;;11.10;99.90;;;;;;5090502;28;20048;-64
2023/06/02 02:55:59;;;;;;;8.48;2.38;;;11.00;99.90;;;;;;5091112;28;20044;-62
2023/06/02 02:58:26;;;;;;;8.98;2.30;;;11.00;99.90;;;;;;5091229;28;20055;-63
2023/06/02 03:00:53;;;;;;;9.98;2.40;;;11.00;99.90;;;;;;5091359;28;20044;-62
2023/06/02 03:03:21;;;;;;;6.53;2.53;;;11.00;99.90;;;;;;5091358;28;20056;-63
2023/06/02 03:05:48;;;;;;;6.60;2.20;;;11.00;99.90;;;;;;5090929;28;20044;-62
2023/06/02 03:08:17;;;;;;;12.40;3.00;;;11.00;99.90;;;;;;5090892;28;20044;-61
2023/06/02 03:10:45;;;;;;;13.75;3.15;;;11.00;99.90;;;;;;5091250;28;20040;-63
2023/06/02 03:13:11;;;;;;;9.27;2.78;;;11.00;99.90;;;;;;5092106;28;20047;-64
2023/06/02 03:15:37;;;;;;;8.55;2.30;;;11.00;99.90;;;;;;5094607;28;20056;-62
2023/06/02 03:18:03;;;;;;;6.97;2.28;;;11.00;99.90;;;;;;5094040;28;20453;-64
2023/06/02 03:20:30;;;;;;;11.73;2.63;;;11.10;99.90;;;;;;5094632;28;20121;-63
2023/06/02 03:22:56;;;;;;;6.80;2.20;;;11.10;99.90;;;;;;5094968;28;20048;-63
2023/06/02 03:25:22;;;;;;;11.40;2.60;;;11.10;99.90;;;;;;5076275;28;20428;-62
2023/06/02 03:27:50;;;;;;;13.93;2.53;;;11.10;99.90;;;;;;5094390;28;20174;-63
2023/06/02 03:30:17;;;;;;;5.32;2.17;;;11.10;99.90;;;;;;5094162;28;20056;-61
2023/06/02 03:32:43;;;;;;;6.90;2.28;;;11.10;99.90;;;;;;5094590;28;20293;-61
2023/06/02 03:35:10;;;;;;;10.90;2.65;;;11.10;99.90;;;;;;5094090;28;20044;-64
2023/06/02 03:37:36;;;;;;;9.13;2.40;;;11.10;99.90;;;;;;5094933;28;20106;-63
2023/06/02 03:40:04;;;;;;;8.43;2.63;;;11.00;99.90;;;;;;5094097;28;20048;-63
2023/06/02 03:42:31;;;;;;;11.93;2.40;;;11.10;99.90;;;;;;5094358;28;20057;-63
2023/06/02 03:44:57;;;;;;;9.05;2.40;;;11.00;99.90;;;;;;5094349;28;20047;-63
2023/06/02 03:47:23;;;;;;;10.20;2.67;;;11.00;99.90;;;;;;5094416;28;20414;-64
2023/06/02 03:49:50;;;;;;;12.10;2.40;;;11.00;99.90;;;;;;5093757;28;20470;-62
2023/06/02 03:52:16;;;;;;;9.80;2.53;;;11.00;99.90;;;;;;5094245;28;20063;-62
2023/06/02 03:54:42;;;;;;;6.80;2.20;;;11.00;99.90;;;;;;5093781;28;20071;-63
2023/06/02 03:57:08;;;;;;;10.00;3.20;;;11.00;99.90;;;;;;5093959;28;20356;-63
2023/06/02 03:59:35;;;;;;;9.55;2.83;;;11.00;99.90;;;;;;5093383;28;20410;-63
2023/06/02 04:02:01;;;;;;;9.98;2.95;;;11.10;99.90;;;;;;5093219;28;20052;-63
2023/06/02 04:04:27;;;;;;;10.25;2.55;;;11.10;99.90;;;;;;5092596;28;20388;-62
2023/06/02 04:06:53;;;;;;;13.48;2.47;;;11.00;99.90;;;;;;5094002;28;20086;-63
2023/06/02 04:09:20;;;;;;;10.48;2.70;;;11.10;99.90;;;;;;5093466;28;20479;-62
2023/06/02 04:11:46;;;;;;;10.88;2.83;;;11.10;99.90;;;;;;5093931;28;20067;-62
2023/06/02 04:14:12;;;;;;;13.77;3.22;;;11.10;99.90;;;;;;5093712;28;20052;-62
2023/06/02 04:16:38;;;;;;;12.23;2.75;;;11.10;99.90;;;;;;5093672;28;20047;-62
2023/06/02 04:19:05;;;;;;;9.85;2.65;;;11.20;99.90;;;;;;5092934;28;20484;-62
2023/06/02 04:21:31;;;;;;;13.27;2.30;;;11.30;99.90;;;;;;5092386;28;20432;-64
2023/06/02 04:23:58;;;;;;;13.25;2.58;;;11.20;99.90;;;;;;5093851;28;20052;-62
2023/06/02 04:26:24;;;;;;;8.60;2.63;;;11.10;99.90;;;;;;5092806;28;20059;-62
2023/06/02 04:28:51;;;;;;;15.70;2.95;;;11.20;99.90;;;;;;5092853;28;20056;-63
2023/06/02 04:31:26;;;;;;;12.13;3.20;;;11.10;99.90;;;;;;5093455;28;20051;-63
2023/06/02 04:33:56;;;;;;;9.65;2.78;;;11.20;99.90;;;;;;5093441;28;20044;-62
2023/06/02 04:36:22;;;;;;;10.38;2.50;;;11.20;99.90;;;;;;5092987;28;20044;-61
2023/06/02 04:38:48;;;;;;;11.63;2.60;;;11.20;99.90;;;;;;5093219;28;20399;-63
2023/06/02 04:41:16;;;;;;;11.82;2.78;;;11.20;99.90;;;;;;5093166;28;20062;-63
2023/06/02 04:43:43;;;;;;;11.20;2.45;;;11.20;99.90;;;;;;5093226;28;20052;-62
2023/06/02 04:46:10;;;;;;;12.63;2.60;;;11.20;99.90;;;;;;5092993;28;20044;-62
2023/06/02 04:48:40;;;;;;;13.63;2.70;;;11.20;99.90;;;;;;5092698;28;20055;-63
2023/06/02 04:51:07;;;;;;;10.73;3.00;;;11.30;99.90;;;;;;5092680;28;20097;-61
2023/06/02 04:53:33;;;;;;;8.65;2.42;;;11.30;99.90;;;;;;5092877;28;20044;-61
2023/06/02 04:55:59;;;;;;;11.80;3.10;;;11.30;99.90;;;;;;5092808;28;20379;-60
2023/06/02 04:58:26;;;;;;;10.63;2.88;;;11.30;99.90;;;;;;5092599;28;20047;-61
2023/06/02 05:00:52;;;;;;;15.52;3.17;;;11.30;99.90;;;;;;5092660;28;20392;-61
2023/06/02 05:03:18;;;;;;;10.48;2.17;;;11.40;99.90;;;;;;5092898;28;20047;-62
2023/06/02 05:05:44;;;;;;;9.57;2.65;;;11.40;99.90;;;;;;5090308;28;20044;-61
2023/06/02 05:08:11;;;;;;;9.60;2.70;;;11.40;99.90;;;;;;5081892;28;20480;-61
2023/06/02 05:10:37;;;;;;;10.30;2.58;;;11.50;99.90;;;;;;5080622;28;20098;-62
2023/06/02 05:13:03;;;;;;;9.65;2.90;;;11.50;99.90;;;;;;5080100;28;20051;-64
2023/06/02 05:15:29;;;;;;;7.00;2.63;;;11.50;99.90;;;;;;5079868;28;20051;-62
2023/06/02 05:17:56;;;;;;;11.20;2.30;;;11.50;99.90;;;;;;5072064;28;20491;-63
2023/06/02 05:20:22;;;;;;;11.85;2.38;;;11.50;99.90;;;;;;5074428;28;20082;-62
2023/06/02 05:22:48;;;;;;;9.68;2.83;;;11.60;99.90;;;;;;5092534;28;20052;-62
2023/06/02 05:25:14;;;;;;;9.38;2.97;;;11.60;99.90;;;;;;5092528;28;20063;-63
2023/06/02 05:27:41;;;;;;;13.30;3.03;;;11.60;99.90;;;;;;5092145;28;20048;-63
2023/06/02 05:30:07;;;;;;;10.85;3.22;;;11.70;99.90;;;;;;5091983;28;20056;-61
2023/06/02 05:32:34;;;;;;;11.02;2.63;;;11.60;99.90;;;;;;5092462;28;20400;-63
2023/06/02 05:35:00;;;;;;;13.73;3.42;;;11.70;99.90;;;;;;5092469;28;20048;-62
2023/06/02 05:37:26;;;;;;;10.02;3.03;;;11.70;99.90;;;;;;5091608;28;20052;-63
2023/06/02 05:39:52;;;;;;;12.60;2.97;;;11.70;99.90;;;;;;5092052;28;20048;-64
2023/06/02 05:42:19;;;;;;;10.48;2.88;;;11.70;99.90;;;;;;5092054;28;20048;-60
2023/06/02 05:44:45;;;;;;;15.70;3.42;;;11.70;99.90;;;;;;5091888;28;20365;-60
2023/06/02 05:47:11;;;;;;;9.88;2.47;;;11.70;99.90;;;;;;5092492;28;20051;-62
2023/06/02 05:49:38;;;;;;;11.85;3.08;;;11.80;99.90;;;;;;5091327;28;20472;-62
2023/06/02 05:52:04;;;;;;;14.05;3.10;;;11.80;99.90;;;;;;5092197;28;20081;-62
2023/06/02 05:54:30;;;;;;;11.77;3.10;;;11.80;99.90;;;;;;5092152;28;20044;-61
2023/06/02 05:56:57;;;;;;;9.73;2.65;;;11.90;99.90;;;;;;5091931;28;20101;-62
2023/06/02 05:59:23;;;;;;;13.68;3.72;;;11.90;99.90;;;;;;5092115;28;20055;-63
2023/06/02 06:01:49;;;;;;;10.93;2.80;;;11.90;99.90;;;;;;5092074;28;20044;-62
2023/06/02 06:04:16;;;;;;;9.93;2.78;;;11.90;99.90;;;;;;5091986;28;20060;-60
2023/06/02 06:06:42;;;;;;;7.13;2.65;;;12.00;99.90;;;;;;5091110;28;20063;-62
2023/06/02 06:09:08;;;;;;;14.57;3.08;;;11.90;99.90;;;;;;5091591;28;20048;-63
2023/06/02 06:11:35;;;;;;;10.90;3.03;;;11.90;99.90;;;;;;5090408;28;20067;-62
2023/06/02 06:14:02;;;;;;;12.13;3.63;;;12.00;99.90;;;;;;5090530;28;20048;-62
2023/06/02 06:16:29;;;;;;;13.43;2.95;;;11.90;99.90;;;;;;5091613;28;20045;-64
2023/06/02 06:18:55;;;;;;;16.20;3.22;;;12.10;99.90;;;;;;5092035;28;20090;-62
2023/06/02 06:21:23;;;;;;;11.52;3.30;;;12.20;99.90;;;;;;5091613;28;20067;-61
2023/06/02 06:23:49;;;;;;;14.93;3.00;;;12.20;99.90;;;;;;5091544;28;20130;-61
2023/06/02 06:26:16;;;;;;;12.27;3.15;;;12.20;99.90;;;;;;5090530;28;20490;-62
2023/06/02 06:28:43;;;;;;;13.25;3.78;;;12.30;99.90;;;;;;5091214;28;20048;-61
2023/06/02 06:31:09;;;;;;;11.57;3.53;;;12.40;99.90;;;;;;5091574;28;20426;-61
2023/06/02 06:33:35;;;;;;;9.02;2.72;;;12.40;99.90;;;;;;5091715;28;20052;-62
2023/06/02 06:36:02;;;;;;;12.63;3.70;;;12.50;99.90;;;;;;5091355;28;20072;-63
2023/06/02 06:38:28;;;;;;;12.45;3.10;;;12.60;99.90;;;;;;5091304;28;20055;-64
2023/06/02 06:40:55;;;;;;;13.43;3.47;;;12.70;99.90;;;;;;5091765;28;20056;-63
2023/06/02 06:43:21;;;;;;;9.75;3.13;;;12.80;99.90;;;;;;5090543;28;20048;-61
2023/06/02 06:45:48;;;;;;;17.80;3.33;;;12.90;99.90;;;;;;5091203;28;20052;-62
2023/06/02 06:48:14;;;;;;;13.98;2.75;;;12.90;99.90;;;;;;5091579;28;20048;-63
2023/06/02 06:50:40;;;;;;;13.20;2.72;;;13.00;99.90;;;;;;5095043;28;20467;-62
2023/06/02 06:53:08;;;;;;;12.45;3.10;;;13.10;99.90;;;;;;5095563;28;20044;-61
2023/06/02 06:55:35;;;;;;;11.18;3.72;;;13.10;99.90;;;;;;5095546;28;20058;-62
2023/06/02 06:58:01;;;;;;;10.75;2.88;;;13.20;99.90;;;;;;5095285;28;20052;-63
2023/06/02 07:00:27;;;;;;;12.98;3.10;;;13.30;99.90;;;;;;5095987;28;20040;-62
2023/06/02 07:02:53;;;;;;;12.23;3.08;;;13.30;99.90;;;;;;5094650;28;20055;-63
2023/06/02 07:05:20;;;;;;;10.85;3.28;;;13.40;99.90;;;;;;5093890;28;20449;-61
2023/06/02 07:07:46;;;;;;;14.10;3.70;;;13.30;99.90;;;;;;5095038;28;20090;-62
2023/06/02 07:10:14;;;;;;;12.70;3.20;;;13.30;99.90;;;;;;5095489;28;20048;-62
2023/06/02 07:12:41;;;;;;;13.77;3.47;;;13.40;99.90;;;;;;5095682;28;20082;-61
2023/06/02 07:15:07;;;;;;;10.48;2.92;;;13.50;99.90;;;;;;5095100;28;20044;-61
2023/06/02 07:17:33;;;;;;;10.75;3.17;;;13.60;99.90;;;;;;5095064;28;20271;-61
2023/06/02 07:20:00;;;;;;;10.57;3.30;;;13.70;99.90;;;;;;5095010;28;20043;-61
2023/06/02 07:22:26;;;;;;;12.85;3.00;;;13.70;99.90;;;;;;5095647;28;20052;-62
2023/06/02 07:24:52;;;;;;;9.40;3.45;;;13.80;99.90;;;;;;5095071;28;20358;-60
2023/06/02 07:27:18;;;;;;;10.35;3.03;;;13.90;99.90;;;;;;5094711;28;20067;-62
2023/06/02 07:29:45;;;;;;;11.20;3.05;;;13.80;99.90;;;;;;5094673;28;20047;-62
2023/06/02 07:32:12;;;;;;;10.77;2.97;;;13.90;99.90;;;;;;5095210;28;20405;-60
2023/06/02 07:34:39;;;;;;;12.65;3.30;;;13.90;99.90;;;;;;5094347;28;20377;-61
2023/06/02 07:37:05;;;;;;;9.60;2.83;;;13.90;99.90;;;;;;5094643;28;20120;-61
2023/06/02 07:39:31;;;;;;;10.98;3.20;;;14.00;99.90;;;;;;5095196;28;20407;-62
2023/06/02 07:41:58;;;;;;;12.90;3.47;;;13.90;99.90;;;;;;5095260;28;20074;-62
2023/06/02 07:44:24;;;;;;;9.85;3.70;;;14.00;99.90;;;;;;5095618;28;20048;-62
2023/06/02 07:46:50;;;;;;;14.18;3.35;;;14.00;99.90;;;;;;5094737;28;20051;-61
2023/06/02 07:49:17;;;;;;;10.45;3.47;;;14.10;99.90;;;;;;5095383;28;20056;-61
2023/06/02 07:51:43;;;;;;;12.13;3.63;;;14.10;99.90;;;;;;5093921;28;20048;-62
2023/06/02 07:54:09;;;;;;;10.30;3.20;;;14.20;99.90;;;;;;5094012;28;20070;-61
2023/06/02 07:56:36;;;;;;;10.95;3.97;;;14.20;99.90;;;;;;5093973;28;20055;-62
2023/06/02 07:59:02;;;;;;;16.40;4.05;;;14.20;99.90;;;;;;5094605;28;20376;-62
2023/06/02 08:01:29;;;;;;;12.57;3.47;;;14.30;99.90;;;;;;5093214;28;20362;-63
2023/06/02 08:03:55;;;;;;;12.70;3.50;;;14.30;99.90;;;;;;5095124;28;20345;-62
2023/06/02 08:06:22;;;;;;;13.95;3.60;;;14.40;99.90;;;;;;5093830;28;20058;-62
2023/06/02 08:08:48;;;;;;;15.02;4.38;;;14.50;99.90;;;;;;5094721;28;20421;-62
2023/06/02 08:11:14;;;;;;;13.13;3.72;;;14.40;99.90;;;;;;5094434;28;20113;-63
2023/06/02 08:13:40;;;;;;;13.95;3.97;;;14.40;99.90;;;;;;5093535;28;20056;-62
2023/06/02 08:16:07;;;;;;;11.30;3.78;;;14.50;99.90;;;;;;5093882;28;20522;-61
2023/06/02 08:18:33;;;;;;;13.70;4.00;;;14.60;99.90;;;;;;5093883;28;20098;-62
2023/06/02 08:21:00;;;;;;;9.95;3.85;;;14.60;99.90;;;;;;5093628;28;20470;-62
2023/06/02 08:23:27;;;;;;;14.27;4.10;;;14.60;99.90;;;;;;5094474;28;20449;-64
2023/06/02 08:25:54;;;;;;;20.65;4.88;;;14.60;99.90;;;;;;5094164;28;20376;-61
2023/06/02 08:28:24;;;;;;;18.33;3.90;;;14.60;99.90;;;;;;5093852;28;20052;-62
2023/06/02 08:30:51;;;;;;;18.15;3.90;;;14.70;99.90;;;;;;5054224;28;20449;-62
2023/06/02 08:33:18;;;;;;;12.43;3.70;;;14.80;99.90;;;;;;5053685;28;20064;-63
2023/06/02 08:35:51;;;;;;;17.02;4.18;;;14.90;99.90;;;;;;5053345;28;20053;-62
2023/06/02 08:38:18;;;;;;;13.07;4.10;;;15.00;99.90;;;;;;5053319;28;20128;-63
2023/06/02 08:40:47;;;;;;;12.57;3.67;;;15.10;99.90;;;;;;5053853;28;20491;-63
2023/06/02 08:43:14;;;;;;;13.65;4.15;;;15.20;99.90;;;;;;5053590;28;20067;-62
2023/06/02 08:45:46;;;;;;;14.85;4.57;;;15.30;99.90;;;;;;5053409;28;20048;-62
2023/06/02 08:48:13;;;;;;;;;;;15.20;99.90;;;;;;5053574;28;20195;-62
2023/06/02 08:50:43;;;;;;;14.15;4.05;;;15.30;99.90;;;;;;5053454;28;19921;-62
2023/06/02 08:53:13;;;;;;;12.65;4.45;;;15.50;99.90;;;;;;5053595;28;20048;-62
2023/06/02 08:55:41;;;;;;;16.95;4.95;;;15.60;99.90;;;;;;5053433;28;20068;-61
2023/06/02 08:58:11;;;;;;;16.25;4.35;;;15.70;99.90;;;;;;5052741;28;20435;-63
2023/06/02 09:00:41;;;;;;;14.02;4.20;;;15.90;99.90;;;;;;5053424;28;20190;-64
2023/06/02 09:03:13;;;;;;;20.38;5.32;;;16.00;99.90;;;;;;5053774;28;20053;-64
2023/06/02 09:05:39;;;;;;;9.93;3.63;;;16.30;99.90;;;;;;5052958;28;20051;-66
2023/06/02 09:08:11;;;;;;;19.15;4.60;;;16.50;99.90;;;;;;5051698;28;20057;-65
2023/06/02 09:10:41;;;;;;;;;;;16.60;99.90;;;;;;5053819;28;20056;-65
2023/06/02 09:13:09;;;;;;;14.38;3.95;;;16.80;99.90;;;;;;5051832;28;19927;-65
2023/06/02 09:15:53;;;;;;;14.40;4.32;;;16.70;99.90;;;;;;5052668;28;20052;-66
2023/06/02 09:18:19;;;;;;;17.73;4.90;;;16.80;99.90;;;;;;5052610;28;20045;-66
2023/06/02 09:20:48;;;;;;;14.15;4.68;;;16.80;99.90;;;;;;5052069;28;20053;-65
2023/06/02 09:23:14;;;;;;;13.27;4.32;;;17.00;99.90;;;;;;5053142;28;20045;-65
2023/06/02 09:25:41;;;;;;;17.40;4.82;;;17.20;99.90;;;;;;5052800;28;20060;-62
2023/06/02 09:28:09;;;;;;;13.90;4.43;;;17.20;99.90;;;;;;5052758;28;20053;-65
2023/06/02 09:30:36;;;;;;;11.60;4.10;;;17.40;99.90;;;;;;5054881;28;20113;-64
2023/06/02 09:33:11;;;;;;;16.73;4.65;;;17.60;99.90;;;;;;5092811;28;20460;-65
2023/06/02 09:35:45;;;;;;;15.68;4.43;;;17.70;99.90;;;;;;5092561;28;20052;-64
2023/06/02 09:38:13;;;;;;;14.32;4.15;;;18.00;99.90;;;;;;5092826;28;20044;-66
2023/06/02 09:40:40;;;;;;;10.15;4.03;;;18.10;99.90;;;;;;5093591;28;20040;-65
2023/06/02 09:43:10;;;;;;;11.93;3.67;;;18.30;99.90;;;;;;5093229;28;20082;-66
2023/06/02 09:45:59;;;;;;;20.25;5.10;;;18.30;99.90;;;;;;5092298;28;20460;-65
2023/06/02 09:48:27;;;;;;;14.63;4.53;;;18.40;99.90;;;;;;5092693;28;20048;-66
2023/06/02 09:50:54;;;;;;;15.32;4.22;;;18.50;99.90;;;;;;5093016;28;20048;-65
2023/06/02 09:53:22;;;;;;;13.13;4.10;;;18.80;99.90;;;;;;5092646;28;20048;-66
2023/06/02 09:55:50;;;;;;;13.23;4.00;;;19.20;99.90;;;;;;5092470;28;20491;-65
2023/06/02 09:58:17;;;;;;;11.95;4.45;;;19.20;99.90;;;;;;5091978;28;20430;-65
2023/06/02 10:00:43;;;;;;;14.68;4.57;;;19.00;99.90;;;;;;5092859;28;20177;-64
2023/06/02 10:03:10;;;;;;;14.77;4.35;;;19.00;99.90;;;;;;5092680;28;20069;-62
2023/06/02 10:05:40;;;;;;;12.65;4.45;;;18.90;99.90;;;;;;5092436;28;20132;-65
2023/06/02 10:08:41;;;;;;;13.73;4.22;;;18.80;99.90;;;;;;5092467;28;20055;-64
2023/06/02 10:11:25;;;;;;;13.27;3.58;;;18.90;99.90;;;;;;5075360;28;20062;-63
2023/06/02 10:14:40;;;;;;;13.25;4.50;;;19.10;99.90;;;;;;5092691;28;20055;-66
2023/06/02 10:17:47;;;;;;;13.23;3.92;;;19.10;99.90;;;;;;5009851;28;20061;-63
2023/06/02 10:20:30;;;;;;;13.77;4.50;;;19.00;99.90;;;;;;5072423;28;20044;-65
2023/06/02 10:23:17;;;;;;;11.95;3.78;;;18.80;99.90;;;;;;5072463;28;20522;-64
2023/06/02 10:26:16;;;;;;;11.18;3.97;;;18.60;99.90;;;;;;5085564;28;20085;-64
2023/06/02 10:28:42;;;;;;;9.50;2.95;;;18.60;99.90;;;;;;5094280;28;20044;-62
2023/06/02 10:31:11;;;;;;;6.90;3.15;;;18.70;99.90;;;;;;5096570;28;20143;-63
2023/06/02 10:33:45;;;;;;;10.88;3.33;;;18.90;99.90;;;;;;5093329;28;20105;-63
2023/06/02 10:36:13;;;;;;;10.23;3.40;;;19.00;99.90;;;;;;5083671;28;20101;-62
2023/06/02 10:38:40;;;;;;;7.47;2.88;;;19.20;99.90;;;;;;5086873;28;20040;-63
2023/06/02 10:41:06;;;;;;;6.00;2.60;;;19.50;99.90;;;;;;5085235;28;20074;-64
2023/06/02 10:43:33;;;;;;;7.93;2.97;;;19.90;99.90;;;;;;5084450;28;20048;-62
2023/06/02 10:46:22;;;;;;;7.22;3.05;;;20.10;99.90;;;;;;5086498;28;20448;-63
2023/06/02 10:48:49;;;;;;;8.25;3.05;;;20.40;99.90;;;;;;5078489;28;20048;-62
2023/06/02 10:51:16;;;;;;;8.20;2.95;;;20.30;99.90;;;;;;5075811;28;20053;-63
2023/06/02 10:54:07;;;;;;;9.23;3.10;;;20.20;99.90;;;;;;5092480;28;20172;-62
2023/06/02 10:56:38;;;;;;;9.82;2.75;;;20.30;99.90;;;;;;5095530;28;20089;-63
2023/06/02 10:59:05;;;;;;;8.05;2.67;;;20.30;99.90;;;;;;5095363;28;20365;-63
2023/06/02 11:01:48;;;;;;;7.40;2.50;;;20.50;99.90;;;;;;5095991;28;20048;-62
2023/06/02 11:04:32;;;;;;;8.70;2.47;;;20.50;99.60;;;;;;5096275;28;20411;-62
2023/06/02 11:07:23;;;;;;;10.65;2.47;;;20.60;99.80;;;;;;5093516;28;20089;-65
2023/06/02 11:10:00;;;;;;;7.18;2.28;;;20.60;99.30;;;;;;5095456;28;20361;-63
2023/06/02 11:12:58;;;;;;;5.68;2.33;;;20.50;99.50;;;;;;5095662;28;20476;-64
2023/06/02 11:15:24;;;;;;;7.05;2.58;;;20.50;99.50;;;;;;5095400;28;20052;-62
2023/06/02 11:17:50;;;;;;;7.38;2.33;;;20.50;99.90;;;;;;5095323;28;20054;-62
2023/06/02 11:20:18;;;;;;;6.03;1.85;;;20.50;99.50;;;;;;5095699;28;20052;-64
2023/06/02 11:22:46;;;;;;;3.67;2.00;;;20.60;99.10;;;;;;5095877;28;20048;-64
2023/06/02 11:25:15;;;;;;;6.00;2.45;;;20.70;98.80;;;;;;5077868;28;20058;-65
2023/06/02 11:27:45;;;;;;;6.82;2.10;;;20.60;98.60;;;;;;5095147;28;20105;-62
2023/06/02 11:30:16;;;;;;;6.57;2.35;;;20.60;98.50;;;;;;5095437;28;20105;-63
2023/06/02 11:32:47;;;;;;;;;;;20.50;98.20;;;;;;5096068;28;20048;-62
2023/06/02 11:35:16;;;;;;;5.10;1.90;;;20.40;97.90;;;;;;5095019;28;19924;-64
2023/06/02 11:37:43;;;;;;;5.53;2.03;;;20.30;98.00;;;;;;5095348;28;20048;-65
2023/06/02 11:40:13;;;;;;;5.70;2.40;;;20.30;98.30;;;;;;5095308;28;20055;-65
2023/06/02 11:42:43;;;;;;;7.05;2.25;;;20.40;98.20;;;;;;5095009;28;20054;-66
2023/06/02 11:45:20;;;;;;;8.55;2.65;;;20.50;98.30;;;;;;5095170;28;20056;-65
2023/06/02 11:47:47;;;;;;;;;;;20.60;98.20;;;;;;5091522;28;20051;-64
2023/06/02 11:50:20;;;;;;;9.15;2.30;;;20.70;97.20;;;;;;5084130;28;19938;-65
2023/06/02 11:52:46;;;;;;;5.75;2.50;;;20.80;97.50;;;;;;5086209;28;20151;-65
2023/06/02 11:55:13;;;;;;;5.70;2.53;;;20.80;97.20;;;;;;5085981;28;20044;-66
2023/06/02 11:57:42;;;;;;;7.25;2.30;;;20.70;96.80;;;;;;5082918;28;20040;-66
2023/06/02 12:00:12;;;;;;;8.95;2.65;;;20.60;96.70;;;;;;5084712;28;20043;-64
2023/06/02 12:02:43;;;;;;;9.40;2.88;;;20.70;96.90;;;;;;5085397;28;20069;-65
2023/06/02 12:05:30;;;;;;;5.82;2.30;;;21.00;97.20;;;;;;5085891;28;20051;-65
2023/06/02 12:08:07;;;;;;;4.88;2.20;;;21.40;96.70;;;;;;5084838;28;20082;-64
2023/06/02 12:10:34;;;;;;;6.57;2.30;;;21.40;96.50;;;;;;5084428;28;20049;-65
2023/06/02 12:13:00;;;;;;;5.97;2.42;;;21.60;96.80;;;;;;5083352;28;20074;-65
2023/06/02 12:15:33;;;;;;;4.43;1.80;;;21.80;96.50;;;;;;5086660;28;20517;-65
2023/06/02 12:18:01;;;;;;;4.38;1.90;;;21.70;95.80;;;;;;5081951;28;20059;-63
2023/06/02 12:20:53;;;;;;;5.07;1.80;;;21.80;95.90;;;;;;5093316;28;20070;-61
2023/06/02 12:23:20;;;;;;;4.95;2.30;;;21.90;95.40;;;;;;5090781;28;20044;-63
2023/06/02 12:25:56;;;;;;;4.45;2.30;;;21.80;95.40;;;;;;5094183;28;20097;-62
2023/06/02 12:28:22;;;;;;;5.18;2.10;;;21.90;94.90;;;;;;5094690;28;20047;-64
2023/06/02 12:30:49;;;;;;;5.03;1.92;;;21.70;94.40;;;;;;5093677;28;20129;-63
2023/06/02 12:33:15;;;;;;;4.40;1.95;;;21.60;94.90;;;;;;5094055;28;20044;-62
2023/06/02 12:35:42;;;;;;;4.93;2.17;;;21.50;94.60;;;;;;5093784;28;20372;-61
2023/06/02 12:38:09;;;;;;;5.20;2.13;;;21.60;95.10;;;;;;5093536;28;20384;-63
2023/06/02 12:40:39;;;;;;;5.25;2.08;;;21.60;94.90;;;;;;5094121;28;20044;-61
2023/06/02 12:43:05;;;;;;;7.32;2.10;;;21.80;94.90;;;;;;5094064;28;20058;-62
2023/06/02 12:45:32;;;;;;;4.00;1.80;;;21.90;95.00;;;;;;5093595;28;20051;-62
2023/06/02 12:48:00;;;;;;;4.78;1.90;;;22.00;95.00;;;;;;5093308;28;20113;-63
2023/06/02 12:50:26;;;;;;;4.10;1.65;;;22.20;94.90;;;;;;5093885;28;20105;-63